<?xml version="1.0" encoding="UTF-8"?>
<gpx version="1.1" creator="GPSBabel - http://www.gpsbabel.org" xmlns="http://www.topografix.com/GPX/1/1" xmlns:xsi="http://www.w3.org/2001/XMLSchema-instance">
  <metadata>
    <time>2017-04-10T11:12:25.570Z</time>
    <bounds minlat="41.138204000" minlon="19.784127000" maxlat="41.161946000" maxlon="19.809772000"/>
  </metadata>
  <wpt lat="41.150870000" lon="19.800441000">
    <ele>669.000000</ele>
    <time>2012-03-17T21:29:29Z</time>
    <name>Main summit</name>
    <cmt>Main summit</cmt>
    <desc>Main summit</desc>
  </wpt>
  <wpt lat="41.161840000" lon="19.789750000">
    <ele>641.000000</ele>
    <time>2012-03-17T21:29:29Z</time>
    <name>North Summit</name>
    <cmt>North Summit</cmt>
    <desc>North Summit</desc>
  </wpt>
  <wpt lat="41.142088000" lon="19.809085000">
    <ele>620.000000</ele>
    <time>2012-03-17T21:29:29Z</time>
    <name>South Summit</name>
    <cmt>South Summit</cmt>
    <desc>South Summit</desc>
  </wpt>
  <trk>
    <name>Vrap, Vrap, Vrap</name>
    <cmt/>
    <trkseg>
      <trkpt lat="41.144762000" lon="19.787234000">
        <ele>479.800000</ele>
        <time>2012-03-17T11:10:25Z</time>
      </trkpt>
      <trkpt lat="41.144748000" lon="19.787241000">
        <ele>480.800000</ele>
        <time>2012-03-17T11:11:16Z</time>
      </trkpt>
      <trkpt lat="41.144824000" lon="19.787471000">
        <ele>480.300000</ele>
        <time>2012-03-17T11:13:06Z</time>
      </trkpt>
      <trkpt lat="41.144743000" lon="19.787681000">
        <ele>480.800000</ele>
        <time>2012-03-17T11:13:22Z</time>
      </trkpt>
      <trkpt lat="41.144712000" lon="19.787910000">
        <ele>481.300000</ele>
        <time>2012-03-17T11:13:40Z</time>
      </trkpt>
      <trkpt lat="41.144557000" lon="19.788308000">
        <ele>479.400000</ele>
        <time>2012-03-17T11:14:13Z</time>
      </trkpt>
      <trkpt lat="41.144432000" lon="19.788633000">
        <ele>477.400000</ele>
        <time>2012-03-17T11:14:44Z</time>
      </trkpt>
      <trkpt lat="41.144364000" lon="19.788787000">
        <ele>476.000000</ele>
        <time>2012-03-17T11:15:02Z</time>
      </trkpt>
      <trkpt lat="41.144225000" lon="19.788918000">
        <ele>475.000000</ele>
        <time>2012-03-17T11:15:16Z</time>
      </trkpt>
      <trkpt lat="41.144130000" lon="19.788944000">
        <ele>475.000000</ele>
        <time>2012-03-17T11:15:25Z</time>
      </trkpt>
      <trkpt lat="41.144055000" lon="19.788820000">
        <ele>473.600000</ele>
        <time>2012-03-17T11:15:52Z</time>
      </trkpt>
      <trkpt lat="41.144020000" lon="19.788812000">
        <ele>473.100000</ele>
        <time>2012-03-17T11:16:07Z</time>
      </trkpt>
      <trkpt lat="41.143726000" lon="19.789487000">
        <ele>461.600000</ele>
        <time>2012-03-17T11:17:16Z</time>
      </trkpt>
      <trkpt lat="41.143697000" lon="19.789509000">
        <ele>461.100000</ele>
        <time>2012-03-17T11:17:39Z</time>
      </trkpt>
      <trkpt lat="41.143604000" lon="19.789221000">
        <ele>455.300000</ele>
        <time>2012-03-17T11:18:07Z</time>
      </trkpt>
      <trkpt lat="41.143505000" lon="19.789143000">
        <ele>452.900000</ele>
        <time>2012-03-17T11:18:16Z</time>
      </trkpt>
      <trkpt lat="41.143457000" lon="19.789179000">
        <ele>449.100000</ele>
        <time>2012-03-17T11:18:22Z</time>
      </trkpt>
      <trkpt lat="41.143326000" lon="19.789131000">
        <ele>451.000000</ele>
        <time>2012-03-17T11:18:37Z</time>
      </trkpt>
      <trkpt lat="41.143134000" lon="19.789202000">
        <ele>450.500000</ele>
        <time>2012-03-17T11:18:57Z</time>
      </trkpt>
      <trkpt lat="41.143077000" lon="19.789182000">
        <ele>450.000000</ele>
        <time>2012-03-17T11:19:03Z</time>
      </trkpt>
      <trkpt lat="41.142910000" lon="19.789224000">
        <ele>449.100000</ele>
        <time>2012-03-17T11:19:37Z</time>
      </trkpt>
      <trkpt lat="41.142656000" lon="19.789383000">
        <ele>447.200000</ele>
        <time>2012-03-17T11:20:53Z</time>
      </trkpt>
      <trkpt lat="41.142542000" lon="19.789480000">
        <ele>445.700000</ele>
        <time>2012-03-17T11:22:30Z</time>
      </trkpt>
      <trkpt lat="41.142474000" lon="19.789516000">
        <ele>445.200000</ele>
        <time>2012-03-17T11:22:48Z</time>
      </trkpt>
      <trkpt lat="41.142367000" lon="19.789620000">
        <ele>444.700000</ele>
        <time>2012-03-17T11:23:04Z</time>
      </trkpt>
      <trkpt lat="41.142356000" lon="19.789648000">
        <ele>444.300000</ele>
        <time>2012-03-17T11:23:25Z</time>
      </trkpt>
      <trkpt lat="41.142241000" lon="19.789710000">
        <ele>443.800000</ele>
        <time>2012-03-17T11:23:53Z</time>
      </trkpt>
      <trkpt lat="41.142195000" lon="19.789800000">
        <ele>442.300000</ele>
        <time>2012-03-17T11:24:02Z</time>
      </trkpt>
      <trkpt lat="41.142116000" lon="19.789991000">
        <ele>440.900000</ele>
        <time>2012-03-17T11:24:16Z</time>
      </trkpt>
      <trkpt lat="41.141970000" lon="19.790122000">
        <ele>438.000000</ele>
        <time>2012-03-17T11:24:35Z</time>
      </trkpt>
      <trkpt lat="41.141904000" lon="19.790151000">
        <ele>438.000000</ele>
        <time>2012-03-17T11:24:43Z</time>
      </trkpt>
      <trkpt lat="41.141454000" lon="19.790129000">
        <ele>428.400000</ele>
        <time>2012-03-17T11:25:48Z</time>
      </trkpt>
      <trkpt lat="41.141321000" lon="19.790104000">
        <ele>427.400000</ele>
        <time>2012-03-17T11:26:04Z</time>
      </trkpt>
      <trkpt lat="41.141152000" lon="19.790122000">
        <ele>427.000000</ele>
        <time>2012-03-17T11:26:19Z</time>
      </trkpt>
      <trkpt lat="41.141018000" lon="19.790109000">
        <ele>426.500000</ele>
        <time>2012-03-17T11:26:33Z</time>
      </trkpt>
      <trkpt lat="41.140780000" lon="19.790155000">
        <ele>427.900000</ele>
        <time>2012-03-17T11:26:54Z</time>
      </trkpt>
      <trkpt lat="41.140542000" lon="19.790133000">
        <ele>430.800000</ele>
        <time>2012-03-17T11:27:16Z</time>
      </trkpt>
      <trkpt lat="41.140334000" lon="19.790205000">
        <ele>432.300000</ele>
        <time>2012-03-17T11:27:38Z</time>
      </trkpt>
      <trkpt lat="41.140233000" lon="19.790329000">
        <ele>430.800000</ele>
        <time>2012-03-17T11:27:53Z</time>
      </trkpt>
      <trkpt lat="41.139953000" lon="19.790535000">
        <ele>428.900000</ele>
        <time>2012-03-17T11:28:31Z</time>
      </trkpt>
      <trkpt lat="41.139839000" lon="19.790671000">
        <ele>427.400000</ele>
        <time>2012-03-17T11:28:46Z</time>
      </trkpt>
      <trkpt lat="41.139836000" lon="19.790724000">
        <ele>430.300000</ele>
        <time>2012-03-17T11:29:00Z</time>
      </trkpt>
      <trkpt lat="41.139835000" lon="19.790726000">
        <ele>427.900000</ele>
        <time>2012-03-17T11:29:01Z</time>
      </trkpt>
      <trkpt lat="41.139748000" lon="19.790954000">
        <ele>422.200000</ele>
        <time>2012-03-17T11:29:28Z</time>
      </trkpt>
      <trkpt lat="41.139744000" lon="19.790961000">
        <ele>418.300000</ele>
        <time>2012-03-17T11:29:29Z</time>
      </trkpt>
      <trkpt lat="41.139741000" lon="19.790969000">
        <ele>419.800000</ele>
        <time>2012-03-17T11:29:30Z</time>
      </trkpt>
      <trkpt lat="41.139742000" lon="19.790977000">
        <ele>423.100000</ele>
        <time>2012-03-17T11:29:31Z</time>
      </trkpt>
      <trkpt lat="41.139580000" lon="19.791206000">
        <ele>418.300000</ele>
        <time>2012-03-17T11:30:07Z</time>
      </trkpt>
      <trkpt lat="41.139480000" lon="19.791661000">
        <ele>410.100000</ele>
        <time>2012-03-17T11:31:06Z</time>
      </trkpt>
      <trkpt lat="41.139177000" lon="19.791969000">
        <ele>403.900000</ele>
        <time>2012-03-17T11:32:10Z</time>
      </trkpt>
      <trkpt lat="41.139090000" lon="19.792081000">
        <ele>403.400000</ele>
        <time>2012-03-17T11:32:22Z</time>
      </trkpt>
      <trkpt lat="41.139137000" lon="19.792231000">
        <ele>401.000000</ele>
        <time>2012-03-17T11:32:37Z</time>
      </trkpt>
      <trkpt lat="41.139073000" lon="19.792430000">
        <ele>397.600000</ele>
        <time>2012-03-17T11:32:57Z</time>
      </trkpt>
      <trkpt lat="41.139071000" lon="19.792438000">
        <ele>394.300000</ele>
        <time>2012-03-17T11:33:04Z</time>
      </trkpt>
      <trkpt lat="41.139083000" lon="19.792487000">
        <ele>382.300000</ele>
        <time>2012-03-17T11:33:09Z</time>
      </trkpt>
      <trkpt lat="41.139301000" lon="19.792830000">
        <ele>391.900000</ele>
        <time>2012-03-17T11:33:46Z</time>
      </trkpt>
      <trkpt lat="41.139316000" lon="19.792884000">
        <ele>391.400000</ele>
        <time>2012-03-17T11:34:03Z</time>
      </trkpt>
      <trkpt lat="41.139359000" lon="19.792935000">
        <ele>389.500000</ele>
        <time>2012-03-17T11:34:29Z</time>
      </trkpt>
      <trkpt lat="41.139371000" lon="19.793192000">
        <ele>387.500000</ele>
        <time>2012-03-17T11:35:02Z</time>
      </trkpt>
      <trkpt lat="41.139297000" lon="19.793357000">
        <ele>386.100000</ele>
        <time>2012-03-17T11:35:19Z</time>
      </trkpt>
      <trkpt lat="41.139157000" lon="19.793462000">
        <ele>385.100000</ele>
        <time>2012-03-17T11:35:34Z</time>
      </trkpt>
      <trkpt lat="41.138885000" lon="19.793550000">
        <ele>381.800000</ele>
        <time>2012-03-17T11:36:01Z</time>
      </trkpt>
      <trkpt lat="41.138488000" lon="19.794084000">
        <ele>377.900000</ele>
        <time>2012-03-17T11:36:53Z</time>
      </trkpt>
      <trkpt lat="41.138223000" lon="19.794931000">
        <ele>370.700000</ele>
        <time>2012-03-17T11:37:58Z</time>
      </trkpt>
      <trkpt lat="41.138204000" lon="19.795091000">
        <ele>369.300000</ele>
        <time>2012-03-17T11:38:10Z</time>
      </trkpt>
      <trkpt lat="41.138228000" lon="19.795214000">
        <ele>368.300000</ele>
        <time>2012-03-17T11:38:19Z</time>
      </trkpt>
      <trkpt lat="41.138352000" lon="19.795314000">
        <ele>367.800000</ele>
        <time>2012-03-17T11:38:34Z</time>
      </trkpt>
      <trkpt lat="41.138558000" lon="19.795410000">
        <ele>365.900000</ele>
        <time>2012-03-17T11:38:54Z</time>
      </trkpt>
      <trkpt lat="41.138746000" lon="19.795581000">
        <ele>362.600000</ele>
        <time>2012-03-17T11:39:17Z</time>
      </trkpt>
      <trkpt lat="41.138966000" lon="19.795796000">
        <ele>360.600000</ele>
        <time>2012-03-17T11:39:40Z</time>
      </trkpt>
      <trkpt lat="41.139051000" lon="19.795984000">
        <ele>360.600000</ele>
        <time>2012-03-17T11:39:55Z</time>
      </trkpt>
      <trkpt lat="41.139183000" lon="19.796096000">
        <ele>361.100000</ele>
        <time>2012-03-17T11:40:10Z</time>
      </trkpt>
      <trkpt lat="41.139485000" lon="19.796160000">
        <ele>360.600000</ele>
        <time>2012-03-17T11:40:37Z</time>
      </trkpt>
      <trkpt lat="41.139566000" lon="19.796164000">
        <ele>359.700000</ele>
        <time>2012-03-17T11:40:44Z</time>
      </trkpt>
      <trkpt lat="41.139803000" lon="19.796303000">
        <ele>355.800000</ele>
        <time>2012-03-17T11:41:08Z</time>
      </trkpt>
      <trkpt lat="41.139806000" lon="19.796361000">
        <ele>355.300000</ele>
        <time>2012-03-17T11:41:24Z</time>
      </trkpt>
      <trkpt lat="41.139647000" lon="19.796566000">
        <ele>354.900000</ele>
        <time>2012-03-17T11:46:42Z</time>
      </trkpt>
      <trkpt lat="41.139633000" lon="19.796684000">
        <ele>354.900000</ele>
        <time>2012-03-17T11:46:55Z</time>
      </trkpt>
      <trkpt lat="41.139601000" lon="19.796682000">
        <ele>343.800000</ele>
        <time>2012-03-17T11:47:16Z</time>
      </trkpt>
      <trkpt lat="41.139600000" lon="19.796683000">
        <ele>353.900000</ele>
        <time>2012-03-17T11:47:17Z</time>
      </trkpt>
      <trkpt lat="41.139531000" lon="19.796860000">
        <ele>357.700000</ele>
        <time>2012-03-17T11:47:53Z</time>
      </trkpt>
      <trkpt lat="41.139913000" lon="19.797137000">
        <ele>367.800000</ele>
        <time>2012-03-17T11:49:18Z</time>
      </trkpt>
      <trkpt lat="41.139831000" lon="19.797172000">
        <ele>369.300000</ele>
        <time>2012-03-17T11:49:44Z</time>
      </trkpt>
      <trkpt lat="41.139724000" lon="19.797160000">
        <ele>370.200000</ele>
        <time>2012-03-17T11:49:56Z</time>
      </trkpt>
      <trkpt lat="41.139449000" lon="19.797360000">
        <ele>376.000000</ele>
        <time>2012-03-17T11:50:54Z</time>
      </trkpt>
      <trkpt lat="41.139379000" lon="19.797376000">
        <ele>378.400000</ele>
        <time>2012-03-17T11:51:13Z</time>
      </trkpt>
      <trkpt lat="41.139435000" lon="19.797503000">
        <ele>382.300000</ele>
        <time>2012-03-17T11:51:54Z</time>
      </trkpt>
      <trkpt lat="41.139356000" lon="19.797726000">
        <ele>387.500000</ele>
        <time>2012-03-17T11:52:30Z</time>
      </trkpt>
      <trkpt lat="41.139367000" lon="19.797814000">
        <ele>390.000000</ele>
        <time>2012-03-17T11:53:05Z</time>
      </trkpt>
      <trkpt lat="41.139432000" lon="19.797775000">
        <ele>391.900000</ele>
        <time>2012-03-17T11:53:21Z</time>
      </trkpt>
      <trkpt lat="41.139588000" lon="19.797864000">
        <ele>394.300000</ele>
        <time>2012-03-17T11:53:47Z</time>
      </trkpt>
      <trkpt lat="41.139567000" lon="19.797971000">
        <ele>396.200000</ele>
        <time>2012-03-17T11:54:00Z</time>
      </trkpt>
      <trkpt lat="41.139621000" lon="19.798246000">
        <ele>398.100000</ele>
        <time>2012-03-17T11:54:30Z</time>
      </trkpt>
      <trkpt lat="41.139741000" lon="19.798690000">
        <ele>401.000000</ele>
        <time>2012-03-17T11:55:16Z</time>
      </trkpt>
      <trkpt lat="41.139740000" lon="19.798780000">
        <ele>400.000000</ele>
        <time>2012-03-17T11:55:29Z</time>
      </trkpt>
      <trkpt lat="41.139669000" lon="19.798937000">
        <ele>400.500000</ele>
        <time>2012-03-17T11:55:44Z</time>
      </trkpt>
      <trkpt lat="41.139636000" lon="19.799277000">
        <ele>403.900000</ele>
        <time>2012-03-17T11:57:16Z</time>
      </trkpt>
      <trkpt lat="41.139612000" lon="19.799417000">
        <ele>404.900000</ele>
        <time>2012-03-17T11:57:30Z</time>
      </trkpt>
      <trkpt lat="41.139647000" lon="19.799632000">
        <ele>406.300000</ele>
        <time>2012-03-17T11:57:58Z</time>
      </trkpt>
      <trkpt lat="41.139722000" lon="19.799769000">
        <ele>409.700000</ele>
        <time>2012-03-17T11:58:37Z</time>
      </trkpt>
      <trkpt lat="41.139730000" lon="19.799840000">
        <ele>410.600000</ele>
        <time>2012-03-17T11:58:43Z</time>
      </trkpt>
      <trkpt lat="41.139904000" lon="19.800351000">
        <ele>416.900000</ele>
        <time>2012-03-17T11:59:42Z</time>
      </trkpt>
      <trkpt lat="41.139920000" lon="19.800421000">
        <ele>418.300000</ele>
        <time>2012-03-17T11:59:56Z</time>
      </trkpt>
      <trkpt lat="41.139906000" lon="19.800495000">
        <ele>417.300000</ele>
        <time>2012-03-17T12:00:12Z</time>
      </trkpt>
      <trkpt lat="41.139926000" lon="19.800647000">
        <ele>421.200000</ele>
        <time>2012-03-17T12:00:26Z</time>
      </trkpt>
      <trkpt lat="41.140043000" lon="19.800822000">
        <ele>424.600000</ele>
        <time>2012-03-17T12:00:54Z</time>
      </trkpt>
      <trkpt lat="41.140140000" lon="19.801172000">
        <ele>431.300000</ele>
        <time>2012-03-17T12:01:48Z</time>
      </trkpt>
      <trkpt lat="41.140145000" lon="19.801183000">
        <ele>431.300000</ele>
        <time>2012-03-17T12:02:14Z</time>
      </trkpt>
      <trkpt lat="41.140232000" lon="19.801560000">
        <ele>439.000000</ele>
        <time>2012-03-17T12:03:24Z</time>
      </trkpt>
      <trkpt lat="41.140272000" lon="19.801907000">
        <ele>443.800000</ele>
        <time>2012-03-17T12:04:10Z</time>
      </trkpt>
      <trkpt lat="41.140352000" lon="19.801971000">
        <ele>445.700000</ele>
        <time>2012-03-17T12:04:26Z</time>
      </trkpt>
      <trkpt lat="41.140358000" lon="19.802175000">
        <ele>445.700000</ele>
        <time>2012-03-17T12:05:13Z</time>
      </trkpt>
      <trkpt lat="41.140693000" lon="19.802414000">
        <ele>435.600000</ele>
        <time>2012-03-17T12:11:46Z</time>
      </trkpt>
      <trkpt lat="41.140843000" lon="19.802304000">
        <ele>434.200000</ele>
        <time>2012-03-17T12:13:21Z</time>
      </trkpt>
      <trkpt lat="41.140892000" lon="19.802403000">
        <ele>431.300000</ele>
        <time>2012-03-17T12:13:35Z</time>
      </trkpt>
      <trkpt lat="41.140881000" lon="19.802502000">
        <ele>429.800000</ele>
        <time>2012-03-17T12:14:03Z</time>
      </trkpt>
      <trkpt lat="41.141089000" lon="19.803060000">
        <ele>431.800000</ele>
        <time>2012-03-17T12:15:04Z</time>
      </trkpt>
      <trkpt lat="41.141156000" lon="19.803154000">
        <ele>432.300000</ele>
        <time>2012-03-17T12:15:21Z</time>
      </trkpt>
      <trkpt lat="41.141050000" lon="19.803772000">
        <ele>446.200000</ele>
        <time>2012-03-17T12:17:20Z</time>
      </trkpt>
      <trkpt lat="41.141077000" lon="19.803843000">
        <ele>449.100000</ele>
        <time>2012-03-17T12:17:53Z</time>
      </trkpt>
      <trkpt lat="41.141009000" lon="19.803984000">
        <ele>451.000000</ele>
        <time>2012-03-17T12:18:14Z</time>
      </trkpt>
      <trkpt lat="41.140981000" lon="19.804251000">
        <ele>455.800000</ele>
        <time>2012-03-17T12:18:52Z</time>
      </trkpt>
      <trkpt lat="41.141022000" lon="19.804347000">
        <ele>456.800000</ele>
        <time>2012-03-17T12:20:04Z</time>
      </trkpt>
      <trkpt lat="41.140890000" lon="19.804634000">
        <ele>464.000000</ele>
        <time>2012-03-17T12:21:11Z</time>
      </trkpt>
      <trkpt lat="41.140831000" lon="19.804870000">
        <ele>466.400000</ele>
        <time>2012-03-17T12:21:37Z</time>
      </trkpt>
      <trkpt lat="41.140762000" lon="19.804980000">
        <ele>470.200000</ele>
        <time>2012-03-17T12:22:38Z</time>
      </trkpt>
      <trkpt lat="41.140635000" lon="19.805062000">
        <ele>475.500000</ele>
        <time>2012-03-17T12:24:33Z</time>
      </trkpt>
      <trkpt lat="41.140521000" lon="19.805418000">
        <ele>479.800000</ele>
        <time>2012-03-17T12:25:20Z</time>
      </trkpt>
      <trkpt lat="41.140668000" lon="19.805655000">
        <ele>485.100000</ele>
        <time>2012-03-17T12:26:13Z</time>
      </trkpt>
      <trkpt lat="41.140497000" lon="19.805833000">
        <ele>493.300000</ele>
        <time>2012-03-17T12:27:23Z</time>
      </trkpt>
      <trkpt lat="41.140532000" lon="19.805874000">
        <ele>499.500000</ele>
        <time>2012-03-17T12:28:37Z</time>
      </trkpt>
      <trkpt lat="41.140480000" lon="19.806195000">
        <ele>502.400000</ele>
        <time>2012-03-17T12:29:41Z</time>
      </trkpt>
      <trkpt lat="41.140475000" lon="19.806360000">
        <ele>507.200000</ele>
        <time>2012-03-17T12:30:50Z</time>
      </trkpt>
      <trkpt lat="41.140372000" lon="19.806791000">
        <ele>526.000000</ele>
        <time>2012-03-17T12:33:39Z</time>
      </trkpt>
      <trkpt lat="41.140251000" lon="19.807490000">
        <ele>537.500000</ele>
        <time>2012-03-17T12:37:09Z</time>
      </trkpt>
      <trkpt lat="41.140414000" lon="19.807479000">
        <ele>540.400000</ele>
        <time>2012-03-17T12:37:48Z</time>
      </trkpt>
      <trkpt lat="41.140475000" lon="19.807918000">
        <ele>547.100000</ele>
        <time>2012-03-17T12:39:48Z</time>
      </trkpt>
      <trkpt lat="41.140614000" lon="19.808445000">
        <ele>558.700000</ele>
        <time>2012-03-17T12:41:38Z</time>
      </trkpt>
      <trkpt lat="41.140589000" lon="19.808729000">
        <ele>564.900000</ele>
        <time>2012-03-17T12:42:24Z</time>
      </trkpt>
      <trkpt lat="41.140643000" lon="19.808769000">
        <ele>566.400000</ele>
        <time>2012-03-17T12:42:54Z</time>
      </trkpt>
      <trkpt lat="41.140639000" lon="19.808982000">
        <ele>573.100000</ele>
        <time>2012-03-17T12:44:08Z</time>
      </trkpt>
      <trkpt lat="41.140758000" lon="19.809176000">
        <ele>577.900000</ele>
        <time>2012-03-17T12:44:41Z</time>
      </trkpt>
      <trkpt lat="41.140795000" lon="19.809133000">
        <ele>579.800000</ele>
        <time>2012-03-17T12:44:55Z</time>
      </trkpt>
      <trkpt lat="41.140820000" lon="19.809159000">
        <ele>582.200000</ele>
        <time>2012-03-17T12:45:31Z</time>
      </trkpt>
      <trkpt lat="41.140833000" lon="19.809514000">
        <ele>598.100000</ele>
        <time>2012-03-17T12:48:25Z</time>
      </trkpt>
      <trkpt lat="41.140774000" lon="19.809659000">
        <ele>601.900000</ele>
        <time>2012-03-17T12:49:05Z</time>
      </trkpt>
      <trkpt lat="41.140816000" lon="19.809742000">
        <ele>606.700000</ele>
        <time>2012-03-17T12:49:50Z</time>
      </trkpt>
      <trkpt lat="41.140881000" lon="19.809772000">
        <ele>610.100000</ele>
        <time>2012-03-17T12:50:10Z</time>
      </trkpt>
      <trkpt lat="41.141156000" lon="19.809661000">
        <ele>614.900000</ele>
        <time>2012-03-17T12:51:13Z</time>
      </trkpt>
      <trkpt lat="41.141242000" lon="19.809686000">
        <ele>615.400000</ele>
        <time>2012-03-17T12:51:25Z</time>
      </trkpt>
      <trkpt lat="41.141428000" lon="19.809575000">
        <ele>616.800000</ele>
        <time>2012-03-17T12:54:42Z</time>
      </trkpt>
      <trkpt lat="41.141455000" lon="19.809584000">
        <ele>616.800000</ele>
        <time>2012-03-17T12:54:45Z</time>
      </trkpt>
      <trkpt lat="41.141662000" lon="19.809424000">
        <ele>616.800000</ele>
        <time>2012-03-17T12:55:19Z</time>
      </trkpt>
      <trkpt lat="41.141978000" lon="19.809075000">
        <ele>615.900000</ele>
        <time>2012-03-17T12:56:22Z</time>
      </trkpt>
      <trkpt lat="41.142078000" lon="19.809113000">
        <ele>619.700000</ele>
        <time>2012-03-17T12:57:48Z</time>
      </trkpt>
      <trkpt lat="41.142276000" lon="19.808845000">
        <ele>618.300000</ele>
        <time>2012-03-17T13:04:07Z</time>
      </trkpt>
      <trkpt lat="41.142321000" lon="19.808802000">
        <ele>617.800000</ele>
        <time>2012-03-17T13:04:11Z</time>
      </trkpt>
      <trkpt lat="41.142672000" lon="19.808339000">
        <ele>613.000000</ele>
        <time>2012-03-17T13:05:04Z</time>
      </trkpt>
      <trkpt lat="41.142680000" lon="19.808331000">
        <ele>612.500000</ele>
        <time>2012-03-17T13:05:05Z</time>
      </trkpt>
      <trkpt lat="41.142790000" lon="19.808109000">
        <ele>612.500000</ele>
        <time>2012-03-17T13:05:23Z</time>
      </trkpt>
      <trkpt lat="41.142987000" lon="19.807972000">
        <ele>611.100000</ele>
        <time>2012-03-17T13:05:51Z</time>
      </trkpt>
      <trkpt lat="41.143190000" lon="19.807700000">
        <ele>605.800000</ele>
        <time>2012-03-17T13:06:52Z</time>
      </trkpt>
      <trkpt lat="41.143346000" lon="19.807333000">
        <ele>595.700000</ele>
        <time>2012-03-17T13:07:54Z</time>
      </trkpt>
      <trkpt lat="41.143491000" lon="19.807096000">
        <ele>588.500000</ele>
        <time>2012-03-17T13:08:43Z</time>
      </trkpt>
      <trkpt lat="41.143601000" lon="19.806843000">
        <ele>580.800000</ele>
        <time>2012-03-17T13:10:15Z</time>
      </trkpt>
      <trkpt lat="41.143622000" lon="19.806802000">
        <ele>578.400000</ele>
        <time>2012-03-17T13:10:34Z</time>
      </trkpt>
      <trkpt lat="41.143618000" lon="19.806628000">
        <ele>573.100000</ele>
        <time>2012-03-17T13:11:13Z</time>
      </trkpt>
      <trkpt lat="41.143704000" lon="19.806491000">
        <ele>571.200000</ele>
        <time>2012-03-17T13:11:44Z</time>
      </trkpt>
      <trkpt lat="41.143840000" lon="19.806235000">
        <ele>562.000000</ele>
        <time>2012-03-17T13:12:47Z</time>
      </trkpt>
      <trkpt lat="41.143914000" lon="19.805962000">
        <ele>551.900000</ele>
        <time>2012-03-17T13:14:19Z</time>
      </trkpt>
      <trkpt lat="41.143957000" lon="19.805847000">
        <ele>547.600000</ele>
        <time>2012-03-17T13:15:05Z</time>
      </trkpt>
      <trkpt lat="41.143925000" lon="19.805714000">
        <ele>542.800000</ele>
        <time>2012-03-17T13:16:00Z</time>
      </trkpt>
      <trkpt lat="41.143926000" lon="19.805590000">
        <ele>540.400000</ele>
        <time>2012-03-17T13:16:27Z</time>
      </trkpt>
      <trkpt lat="41.143868000" lon="19.805491000">
        <ele>536.100000</ele>
        <time>2012-03-17T13:17:12Z</time>
      </trkpt>
      <trkpt lat="41.143917000" lon="19.805265000">
        <ele>526.900000</ele>
        <time>2012-03-17T13:18:56Z</time>
      </trkpt>
      <trkpt lat="41.143920000" lon="19.805263000">
        <ele>525.500000</ele>
        <time>2012-03-17T13:19:20Z</time>
      </trkpt>
      <trkpt lat="41.143912000" lon="19.805208000">
        <ele>522.100000</ele>
        <time>2012-03-17T13:20:13Z</time>
      </trkpt>
      <trkpt lat="41.143978000" lon="19.804996000">
        <ele>517.800000</ele>
        <time>2012-03-17T13:21:29Z</time>
      </trkpt>
      <trkpt lat="41.143973000" lon="19.804776000">
        <ele>507.700000</ele>
        <time>2012-03-17T13:23:19Z</time>
      </trkpt>
      <trkpt lat="41.143948000" lon="19.804728000">
        <ele>504.800000</ele>
        <time>2012-03-17T13:23:43Z</time>
      </trkpt>
      <trkpt lat="41.143953000" lon="19.804649000">
        <ele>501.500000</ele>
        <time>2012-03-17T13:24:29Z</time>
      </trkpt>
      <trkpt lat="41.144028000" lon="19.804508000">
        <ele>495.700000</ele>
        <time>2012-03-17T13:25:29Z</time>
      </trkpt>
      <trkpt lat="41.143959000" lon="19.804402000">
        <ele>486.600000</ele>
        <time>2012-03-17T13:29:11Z</time>
      </trkpt>
      <trkpt lat="41.143868000" lon="19.804384000">
        <ele>485.100000</ele>
        <time>2012-03-17T13:29:48Z</time>
      </trkpt>
      <trkpt lat="41.143792000" lon="19.804195000">
        <ele>477.000000</ele>
        <time>2012-03-17T13:30:49Z</time>
      </trkpt>
      <trkpt lat="41.143826000" lon="19.804164000">
        <ele>473.600000</ele>
        <time>2012-03-17T13:31:39Z</time>
      </trkpt>
      <trkpt lat="41.143777000" lon="19.804110000">
        <ele>472.600000</ele>
        <time>2012-03-17T13:32:02Z</time>
      </trkpt>
      <trkpt lat="41.143746000" lon="19.803959000">
        <ele>466.900000</ele>
        <time>2012-03-17T13:32:31Z</time>
      </trkpt>
      <trkpt lat="41.143739000" lon="19.803933000">
        <ele>465.900000</ele>
        <time>2012-03-17T13:33:00Z</time>
      </trkpt>
      <trkpt lat="41.143740000" lon="19.803933000">
        <ele>464.500000</ele>
        <time>2012-03-17T13:33:16Z</time>
      </trkpt>
      <trkpt lat="41.143764000" lon="19.803723000">
        <ele>458.700000</ele>
        <time>2012-03-17T13:34:11Z</time>
      </trkpt>
      <trkpt lat="41.143844000" lon="19.803449000">
        <ele>452.400000</ele>
        <time>2012-03-17T13:34:59Z</time>
      </trkpt>
      <trkpt lat="41.143860000" lon="19.803174000">
        <ele>443.800000</ele>
        <time>2012-03-17T13:36:00Z</time>
      </trkpt>
      <trkpt lat="41.143879000" lon="19.803147000">
        <ele>440.900000</ele>
        <time>2012-03-17T13:36:19Z</time>
      </trkpt>
      <trkpt lat="41.143882000" lon="19.803063000">
        <ele>438.000000</ele>
        <time>2012-03-17T13:36:38Z</time>
      </trkpt>
      <trkpt lat="41.143945000" lon="19.802917000">
        <ele>433.700000</ele>
        <time>2012-03-17T13:37:14Z</time>
      </trkpt>
      <trkpt lat="41.143934000" lon="19.802794000">
        <ele>428.900000</ele>
        <time>2012-03-17T13:37:55Z</time>
      </trkpt>
      <trkpt lat="41.143955000" lon="19.802759000">
        <ele>427.900000</ele>
        <time>2012-03-17T13:38:21Z</time>
      </trkpt>
      <trkpt lat="41.143954000" lon="19.802667000">
        <ele>426.000000</ele>
        <time>2012-03-17T13:38:45Z</time>
      </trkpt>
      <trkpt lat="41.143870000" lon="19.802444000">
        <ele>419.300000</ele>
        <time>2012-03-17T13:39:44Z</time>
      </trkpt>
      <trkpt lat="41.143887000" lon="19.802402000">
        <ele>415.900000</ele>
        <time>2012-03-17T13:40:16Z</time>
      </trkpt>
      <trkpt lat="41.143852000" lon="19.802179000">
        <ele>407.700000</ele>
        <time>2012-03-17T13:41:36Z</time>
      </trkpt>
      <trkpt lat="41.143873000" lon="19.802149000">
        <ele>405.300000</ele>
        <time>2012-03-17T13:41:57Z</time>
      </trkpt>
      <trkpt lat="41.143815000" lon="19.802011000">
        <ele>402.900000</ele>
        <time>2012-03-17T13:42:54Z</time>
      </trkpt>
      <trkpt lat="41.143988000" lon="19.801987000">
        <ele>397.200000</ele>
        <time>2012-03-17T13:44:06Z</time>
      </trkpt>
      <trkpt lat="41.144074000" lon="19.801901000">
        <ele>400.500000</ele>
        <time>2012-03-17T13:46:13Z</time>
      </trkpt>
      <trkpt lat="41.144340000" lon="19.801921000">
        <ele>409.700000</ele>
        <time>2012-03-17T13:47:38Z</time>
      </trkpt>
      <trkpt lat="41.144477000" lon="19.801878000">
        <ele>413.500000</ele>
        <time>2012-03-17T13:48:14Z</time>
      </trkpt>
      <trkpt lat="41.144569000" lon="19.801940000">
        <ele>415.900000</ele>
        <time>2012-03-17T13:48:34Z</time>
      </trkpt>
      <trkpt lat="41.144743000" lon="19.802022000">
        <ele>424.600000</ele>
        <time>2012-03-17T13:49:55Z</time>
      </trkpt>
      <trkpt lat="41.144804000" lon="19.801997000">
        <ele>426.500000</ele>
        <time>2012-03-17T13:50:10Z</time>
      </trkpt>
      <trkpt lat="41.144840000" lon="19.801997000">
        <ele>427.900000</ele>
        <time>2012-03-17T13:51:17Z</time>
      </trkpt>
      <trkpt lat="41.145043000" lon="19.802132000">
        <ele>438.000000</ele>
        <time>2012-03-17T13:53:32Z</time>
      </trkpt>
      <trkpt lat="41.145140000" lon="19.802114000">
        <ele>443.800000</ele>
        <time>2012-03-17T13:54:10Z</time>
      </trkpt>
      <trkpt lat="41.145232000" lon="19.802196000">
        <ele>448.100000</ele>
        <time>2012-03-17T13:54:51Z</time>
      </trkpt>
      <trkpt lat="41.145343000" lon="19.802204000">
        <ele>454.400000</ele>
        <time>2012-03-17T13:55:43Z</time>
      </trkpt>
      <trkpt lat="41.145370000" lon="19.802249000">
        <ele>456.300000</ele>
        <time>2012-03-17T13:55:59Z</time>
      </trkpt>
      <trkpt lat="41.145424000" lon="19.802223000">
        <ele>458.700000</ele>
        <time>2012-03-17T13:56:27Z</time>
      </trkpt>
      <trkpt lat="41.145421000" lon="19.802216000">
        <ele>458.700000</ele>
        <time>2012-03-17T13:57:01Z</time>
      </trkpt>
      <trkpt lat="41.145460000" lon="19.802237000">
        <ele>461.600000</ele>
        <time>2012-03-17T13:57:22Z</time>
      </trkpt>
      <trkpt lat="41.145530000" lon="19.802402000">
        <ele>465.400000</ele>
        <time>2012-03-17T13:57:57Z</time>
      </trkpt>
      <trkpt lat="41.145647000" lon="19.802429000">
        <ele>473.600000</ele>
        <time>2012-03-17T13:59:24Z</time>
      </trkpt>
      <trkpt lat="41.145799000" lon="19.802508000">
        <ele>479.800000</ele>
        <time>2012-03-17T14:00:18Z</time>
      </trkpt>
      <trkpt lat="41.145819000" lon="19.802584000">
        <ele>483.200000</ele>
        <time>2012-03-17T14:00:39Z</time>
      </trkpt>
      <trkpt lat="41.145861000" lon="19.802566000">
        <ele>486.100000</ele>
        <time>2012-03-17T14:01:05Z</time>
      </trkpt>
      <trkpt lat="41.145943000" lon="19.802622000">
        <ele>491.900000</ele>
        <time>2012-03-17T14:01:52Z</time>
      </trkpt>
      <trkpt lat="41.145939000" lon="19.802620000">
        <ele>488.500000</ele>
        <time>2012-03-17T14:02:01Z</time>
      </trkpt>
      <trkpt lat="41.145934000" lon="19.802620000">
        <ele>492.300000</ele>
        <time>2012-03-17T14:02:11Z</time>
      </trkpt>
      <trkpt lat="41.146077000" lon="19.802656000">
        <ele>500.000000</ele>
        <time>2012-03-17T14:03:29Z</time>
      </trkpt>
      <trkpt lat="41.146231000" lon="19.802665000">
        <ele>508.200000</ele>
        <time>2012-03-17T14:04:56Z</time>
      </trkpt>
      <trkpt lat="41.146327000" lon="19.802708000">
        <ele>513.500000</ele>
        <time>2012-03-17T14:05:38Z</time>
      </trkpt>
      <trkpt lat="41.146499000" lon="19.802700000">
        <ele>522.100000</ele>
        <time>2012-03-17T14:07:31Z</time>
      </trkpt>
      <trkpt lat="41.146542000" lon="19.802735000">
        <ele>525.500000</ele>
        <time>2012-03-17T14:07:49Z</time>
      </trkpt>
      <trkpt lat="41.146674000" lon="19.802757000">
        <ele>533.700000</ele>
        <time>2012-03-17T14:09:04Z</time>
      </trkpt>
      <trkpt lat="41.146772000" lon="19.802742000">
        <ele>538.500000</ele>
        <time>2012-03-17T14:09:50Z</time>
      </trkpt>
      <trkpt lat="41.146862000" lon="19.802768000">
        <ele>542.800000</ele>
        <time>2012-03-17T14:10:16Z</time>
      </trkpt>
      <trkpt lat="41.147058000" lon="19.802735000">
        <ele>552.900000</ele>
        <time>2012-03-17T14:12:42Z</time>
      </trkpt>
      <trkpt lat="41.147090000" lon="19.802777000">
        <ele>555.300000</ele>
        <time>2012-03-17T14:12:57Z</time>
      </trkpt>
      <trkpt lat="41.147506000" lon="19.802852000">
        <ele>573.100000</ele>
        <time>2012-03-17T14:16:30Z</time>
      </trkpt>
      <trkpt lat="41.147496000" lon="19.802776000">
        <ele>575.000000</ele>
        <time>2012-03-17T14:16:46Z</time>
      </trkpt>
      <trkpt lat="41.147660000" lon="19.802705000">
        <ele>577.900000</ele>
        <time>2012-03-17T14:18:17Z</time>
      </trkpt>
      <trkpt lat="41.147693000" lon="19.802649000">
        <ele>580.800000</ele>
        <time>2012-03-17T14:18:36Z</time>
      </trkpt>
      <trkpt lat="41.147887000" lon="19.802581000">
        <ele>585.600000</ele>
        <time>2012-03-17T14:19:15Z</time>
      </trkpt>
      <trkpt lat="41.148075000" lon="19.802389000">
        <ele>590.400000</ele>
        <time>2012-03-17T14:20:02Z</time>
      </trkpt>
      <trkpt lat="41.148164000" lon="19.802391000">
        <ele>592.800000</ele>
        <time>2012-03-17T14:20:19Z</time>
      </trkpt>
      <trkpt lat="41.148252000" lon="19.802279000">
        <ele>596.600000</ele>
        <time>2012-03-17T14:20:52Z</time>
      </trkpt>
      <trkpt lat="41.148648000" lon="19.802020000">
        <ele>607.200000</ele>
        <time>2012-03-17T14:22:41Z</time>
      </trkpt>
      <trkpt lat="41.148768000" lon="19.802038000">
        <ele>612.000000</ele>
        <time>2012-03-17T14:23:21Z</time>
      </trkpt>
      <trkpt lat="41.148924000" lon="19.801887000">
        <ele>615.900000</ele>
        <time>2012-03-17T14:25:01Z</time>
      </trkpt>
      <trkpt lat="41.149175000" lon="19.801717000">
        <ele>626.000000</ele>
        <time>2012-03-17T14:26:34Z</time>
      </trkpt>
      <trkpt lat="41.149202000" lon="19.801725000">
        <ele>625.500000</ele>
        <time>2012-03-17T14:26:54Z</time>
      </trkpt>
      <trkpt lat="41.149343000" lon="19.801620000">
        <ele>629.300000</ele>
        <time>2012-03-17T14:27:24Z</time>
      </trkpt>
      <trkpt lat="41.149526000" lon="19.801650000">
        <ele>635.600000</ele>
        <time>2012-03-17T14:28:34Z</time>
      </trkpt>
      <trkpt lat="41.149898000" lon="19.801370000">
        <ele>646.100000</ele>
        <time>2012-03-17T14:30:49Z</time>
      </trkpt>
      <trkpt lat="41.150043000" lon="19.801294000">
        <ele>650.900000</ele>
        <time>2012-03-17T14:31:27Z</time>
      </trkpt>
      <trkpt lat="41.150206000" lon="19.801077000">
        <ele>657.200000</ele>
        <time>2012-03-17T14:32:36Z</time>
      </trkpt>
      <trkpt lat="41.150413000" lon="19.800912000">
        <ele>661.500000</ele>
        <time>2012-03-17T14:33:46Z</time>
      </trkpt>
      <trkpt lat="41.150458000" lon="19.800907000">
        <ele>662.500000</ele>
        <time>2012-03-17T14:34:03Z</time>
      </trkpt>
      <trkpt lat="41.150874000" lon="19.800439000">
        <ele>668.700000</ele>
        <time>2012-03-17T14:38:51Z</time>
      </trkpt>
      <trkpt lat="41.150875000" lon="19.800431000">
        <ele>666.800000</ele>
        <time>2012-03-17T14:39:02Z</time>
      </trkpt>
      <trkpt lat="41.150915000" lon="19.800281000">
        <ele>668.700000</ele>
        <time>2012-03-17T14:53:16Z</time>
      </trkpt>
      <trkpt lat="41.151033000" lon="19.800230000">
        <ele>670.700000</ele>
        <time>2012-03-17T14:54:35Z</time>
      </trkpt>
      <trkpt lat="41.151287000" lon="19.799959000">
        <ele>667.800000</ele>
        <time>2012-03-17T14:55:18Z</time>
      </trkpt>
      <trkpt lat="41.151334000" lon="19.799878000">
        <ele>666.300000</ele>
        <time>2012-03-17T14:55:33Z</time>
      </trkpt>
      <trkpt lat="41.151483000" lon="19.799721000">
        <ele>664.400000</ele>
        <time>2012-03-17T14:56:11Z</time>
      </trkpt>
      <trkpt lat="41.151696000" lon="19.799605000">
        <ele>665.400000</ele>
        <time>2012-03-17T14:56:47Z</time>
      </trkpt>
      <trkpt lat="41.151700000" lon="19.799610000">
        <ele>662.500000</ele>
        <time>2012-03-17T14:57:44Z</time>
      </trkpt>
      <trkpt lat="41.151613000" lon="19.799420000">
        <ele>656.200000</ele>
        <time>2012-03-17T14:58:38Z</time>
      </trkpt>
      <trkpt lat="41.151722000" lon="19.799186000">
        <ele>649.500000</ele>
        <time>2012-03-17T15:00:07Z</time>
      </trkpt>
      <trkpt lat="41.151961000" lon="19.798900000">
        <ele>640.900000</ele>
        <time>2012-03-17T15:03:29Z</time>
      </trkpt>
      <trkpt lat="41.152149000" lon="19.798835000">
        <ele>642.300000</ele>
        <time>2012-03-17T15:04:14Z</time>
      </trkpt>
      <trkpt lat="41.152303000" lon="19.798742000">
        <ele>640.900000</ele>
        <time>2012-03-17T15:04:46Z</time>
      </trkpt>
      <trkpt lat="41.152444000" lon="19.798511000">
        <ele>637.000000</ele>
        <time>2012-03-17T15:07:22Z</time>
      </trkpt>
      <trkpt lat="41.152461000" lon="19.798428000">
        <ele>632.200000</ele>
        <time>2012-03-17T15:08:01Z</time>
      </trkpt>
      <trkpt lat="41.152822000" lon="19.797986000">
        <ele>618.300000</ele>
        <time>2012-03-17T15:10:36Z</time>
      </trkpt>
      <trkpt lat="41.152783000" lon="19.797990000">
        <ele>619.700000</ele>
        <time>2012-03-17T15:11:43Z</time>
      </trkpt>
      <trkpt lat="41.152749000" lon="19.797880000">
        <ele>611.500000</ele>
        <time>2012-03-17T15:12:21Z</time>
      </trkpt>
      <trkpt lat="41.152905000" lon="19.797567000">
        <ele>599.000000</ele>
        <time>2012-03-17T15:15:50Z</time>
      </trkpt>
      <trkpt lat="41.152803000" lon="19.797515000">
        <ele>592.300000</ele>
        <time>2012-03-17T15:17:36Z</time>
      </trkpt>
      <trkpt lat="41.152808000" lon="19.797502000">
        <ele>589.400000</ele>
        <time>2012-03-17T15:18:42Z</time>
      </trkpt>
      <trkpt lat="41.152907000" lon="19.797201000">
        <ele>583.200000</ele>
        <time>2012-03-17T15:19:27Z</time>
      </trkpt>
      <trkpt lat="41.152896000" lon="19.797166000">
        <ele>579.800000</ele>
        <time>2012-03-17T15:19:47Z</time>
      </trkpt>
      <trkpt lat="41.152926000" lon="19.796995000">
        <ele>573.600000</ele>
        <time>2012-03-17T15:21:21Z</time>
      </trkpt>
      <trkpt lat="41.153021000" lon="19.796909000">
        <ele>569.700000</ele>
        <time>2012-03-17T15:22:03Z</time>
      </trkpt>
      <trkpt lat="41.153203000" lon="19.796560000">
        <ele>554.300000</ele>
        <time>2012-03-17T15:24:50Z</time>
      </trkpt>
      <trkpt lat="41.153178000" lon="19.796498000">
        <ele>551.500000</ele>
        <time>2012-03-17T15:25:11Z</time>
      </trkpt>
      <trkpt lat="41.153220000" lon="19.796436000">
        <ele>544.200000</ele>
        <time>2012-03-17T15:26:29Z</time>
      </trkpt>
      <trkpt lat="41.153255000" lon="19.796320000">
        <ele>541.400000</ele>
        <time>2012-03-17T15:26:51Z</time>
      </trkpt>
      <trkpt lat="41.153251000" lon="19.796308000">
        <ele>538.500000</ele>
        <time>2012-03-17T15:27:18Z</time>
      </trkpt>
      <trkpt lat="41.153198000" lon="19.796054000">
        <ele>529.800000</ele>
        <time>2012-03-17T15:28:49Z</time>
      </trkpt>
      <trkpt lat="41.153219000" lon="19.795872000">
        <ele>523.600000</ele>
        <time>2012-03-17T15:29:56Z</time>
      </trkpt>
      <trkpt lat="41.153340000" lon="19.795843000">
        <ele>517.300000</ele>
        <time>2012-03-17T15:31:08Z</time>
      </trkpt>
      <trkpt lat="41.153380000" lon="19.795692000">
        <ele>511.100000</ele>
        <time>2012-03-17T15:31:53Z</time>
      </trkpt>
      <trkpt lat="41.153425000" lon="19.795688000">
        <ele>509.600000</ele>
        <time>2012-03-17T15:32:19Z</time>
      </trkpt>
      <trkpt lat="41.153424000" lon="19.795652000">
        <ele>507.200000</ele>
        <time>2012-03-17T15:33:09Z</time>
      </trkpt>
      <trkpt lat="41.153525000" lon="19.795646000">
        <ele>506.800000</ele>
        <time>2012-03-17T15:33:23Z</time>
      </trkpt>
      <trkpt lat="41.153622000" lon="19.795515000">
        <ele>508.200000</ele>
        <time>2012-03-17T15:33:36Z</time>
      </trkpt>
      <trkpt lat="41.153650000" lon="19.795364000">
        <ele>509.200000</ele>
        <time>2012-03-17T15:34:10Z</time>
      </trkpt>
      <trkpt lat="41.153863000" lon="19.795292000">
        <ele>516.800000</ele>
        <time>2012-03-17T15:34:58Z</time>
      </trkpt>
      <trkpt lat="41.153980000" lon="19.795330000">
        <ele>520.700000</ele>
        <time>2012-03-17T15:35:38Z</time>
      </trkpt>
      <trkpt lat="41.153990000" lon="19.795289000">
        <ele>522.600000</ele>
        <time>2012-03-17T15:35:53Z</time>
      </trkpt>
      <trkpt lat="41.154117000" lon="19.795317000">
        <ele>526.500000</ele>
        <time>2012-03-17T15:36:30Z</time>
      </trkpt>
      <trkpt lat="41.154139000" lon="19.795276000">
        <ele>528.900000</ele>
        <time>2012-03-17T15:36:45Z</time>
      </trkpt>
      <trkpt lat="41.154265000" lon="19.795286000">
        <ele>534.100000</ele>
        <time>2012-03-17T15:37:17Z</time>
      </trkpt>
      <trkpt lat="41.154286000" lon="19.795223000">
        <ele>535.600000</ele>
        <time>2012-03-17T15:37:33Z</time>
      </trkpt>
      <trkpt lat="41.154431000" lon="19.795236000">
        <ele>543.800000</ele>
        <time>2012-03-17T15:39:21Z</time>
      </trkpt>
      <trkpt lat="41.154488000" lon="19.795204000">
        <ele>546.600000</ele>
        <time>2012-03-17T15:39:41Z</time>
      </trkpt>
      <trkpt lat="41.154554000" lon="19.795263000">
        <ele>548.600000</ele>
        <time>2012-03-17T15:39:59Z</time>
      </trkpt>
      <trkpt lat="41.154753000" lon="19.795215000">
        <ele>558.700000</ele>
        <time>2012-03-17T15:41:28Z</time>
      </trkpt>
      <trkpt lat="41.154788000" lon="19.795180000">
        <ele>561.500000</ele>
        <time>2012-03-17T15:41:45Z</time>
      </trkpt>
      <trkpt lat="41.154841000" lon="19.795204000">
        <ele>564.000000</ele>
        <time>2012-03-17T15:42:01Z</time>
      </trkpt>
      <trkpt lat="41.155233000" lon="19.795049000">
        <ele>579.300000</ele>
        <time>2012-03-17T15:44:10Z</time>
      </trkpt>
      <trkpt lat="41.155397000" lon="19.794994000">
        <ele>584.100000</ele>
        <time>2012-03-17T15:44:41Z</time>
      </trkpt>
      <trkpt lat="41.155517000" lon="19.794875000">
        <ele>586.100000</ele>
        <time>2012-03-17T15:45:13Z</time>
      </trkpt>
      <trkpt lat="41.155693000" lon="19.794779000">
        <ele>590.900000</ele>
        <time>2012-03-17T15:45:59Z</time>
      </trkpt>
      <trkpt lat="41.155772000" lon="19.794672000">
        <ele>593.800000</ele>
        <time>2012-03-17T15:46:44Z</time>
      </trkpt>
      <trkpt lat="41.155980000" lon="19.794572000">
        <ele>597.600000</ele>
        <time>2012-03-17T15:47:24Z</time>
      </trkpt>
      <trkpt lat="41.156097000" lon="19.794372000">
        <ele>601.900000</ele>
        <time>2012-03-17T15:48:42Z</time>
      </trkpt>
      <trkpt lat="41.156509000" lon="19.794106000">
        <ele>610.600000</ele>
        <time>2012-03-17T15:49:47Z</time>
      </trkpt>
      <trkpt lat="41.156547000" lon="19.794041000">
        <ele>611.500000</ele>
        <time>2012-03-17T15:50:01Z</time>
      </trkpt>
      <trkpt lat="41.156706000" lon="19.793973000">
        <ele>613.900000</ele>
        <time>2012-03-17T15:50:32Z</time>
      </trkpt>
      <trkpt lat="41.157605000" lon="19.793370000">
        <ele>628.400000</ele>
        <time>2012-03-17T15:53:30Z</time>
      </trkpt>
      <trkpt lat="41.157633000" lon="19.793320000">
        <ele>630.800000</ele>
        <time>2012-03-17T15:53:45Z</time>
      </trkpt>
      <trkpt lat="41.157785000" lon="19.793262000">
        <ele>629.300000</ele>
        <time>2012-03-17T15:54:20Z</time>
      </trkpt>
      <trkpt lat="41.157985000" lon="19.793104000">
        <ele>629.800000</ele>
        <time>2012-03-17T15:54:49Z</time>
      </trkpt>
      <trkpt lat="41.158043000" lon="19.793014000">
        <ele>628.800000</ele>
        <time>2012-03-17T15:55:36Z</time>
      </trkpt>
      <trkpt lat="41.158564000" lon="19.792564000">
        <ele>627.900000</ele>
        <time>2012-03-17T15:57:03Z</time>
      </trkpt>
      <trkpt lat="41.158728000" lon="19.792492000">
        <ele>629.300000</ele>
        <time>2012-03-17T15:57:27Z</time>
      </trkpt>
      <trkpt lat="41.158786000" lon="19.792406000">
        <ele>628.800000</ele>
        <time>2012-03-17T15:57:44Z</time>
      </trkpt>
      <trkpt lat="41.159141000" lon="19.792085000">
        <ele>626.900000</ele>
        <time>2012-03-17T15:59:22Z</time>
      </trkpt>
      <trkpt lat="41.159179000" lon="19.792024000">
        <ele>626.400000</ele>
        <time>2012-03-17T15:59:45Z</time>
      </trkpt>
      <trkpt lat="41.159400000" lon="19.791885000">
        <ele>628.400000</ele>
        <time>2012-03-17T16:00:31Z</time>
      </trkpt>
      <trkpt lat="41.159679000" lon="19.791645000">
        <ele>628.400000</ele>
        <time>2012-03-17T16:01:45Z</time>
      </trkpt>
      <trkpt lat="41.159835000" lon="19.791561000">
        <ele>628.400000</ele>
        <time>2012-03-17T16:02:19Z</time>
      </trkpt>
      <trkpt lat="41.160163000" lon="19.791226000">
        <ele>627.400000</ele>
        <time>2012-03-17T16:03:38Z</time>
      </trkpt>
      <trkpt lat="41.160460000" lon="19.791002000">
        <ele>629.300000</ele>
        <time>2012-03-17T16:04:30Z</time>
      </trkpt>
      <trkpt lat="41.160552000" lon="19.790969000">
        <ele>629.800000</ele>
        <time>2012-03-17T16:04:44Z</time>
      </trkpt>
      <trkpt lat="41.160938000" lon="19.790698000">
        <ele>635.100000</ele>
        <time>2012-03-17T16:06:41Z</time>
      </trkpt>
      <trkpt lat="41.161128000" lon="19.790504000">
        <ele>633.600000</ele>
        <time>2012-03-17T16:08:31Z</time>
      </trkpt>
      <trkpt lat="41.161260000" lon="19.790409000">
        <ele>634.600000</ele>
        <time>2012-03-17T16:08:44Z</time>
      </trkpt>
      <trkpt lat="41.161288000" lon="19.790291000">
        <ele>635.100000</ele>
        <time>2012-03-17T16:08:59Z</time>
      </trkpt>
      <trkpt lat="41.161497000" lon="19.790128000">
        <ele>636.000000</ele>
        <time>2012-03-17T16:09:38Z</time>
      </trkpt>
      <trkpt lat="41.161556000" lon="19.790007000">
        <ele>636.500000</ele>
        <time>2012-03-17T16:10:09Z</time>
      </trkpt>
      <trkpt lat="41.161563000" lon="19.789999000">
        <ele>636.500000</ele>
        <time>2012-03-17T16:10:11Z</time>
      </trkpt>
      <trkpt lat="41.161783000" lon="19.789781000">
        <ele>639.400000</ele>
        <time>2012-03-17T16:11:14Z</time>
      </trkpt>
      <trkpt lat="41.161841000" lon="19.789749000">
        <ele>640.400000</ele>
        <time>2012-03-17T16:11:31Z</time>
      </trkpt>
      <trkpt lat="41.161946000" lon="19.789638000">
        <ele>638.900000</ele>
        <time>2012-03-17T16:14:20Z</time>
      </trkpt>
      <trkpt lat="41.161946000" lon="19.789589000">
        <ele>638.500000</ele>
        <time>2012-03-17T16:14:45Z</time>
      </trkpt>
      <trkpt lat="41.161775000" lon="19.789500000">
        <ele>634.100000</ele>
        <time>2012-03-17T16:16:50Z</time>
      </trkpt>
      <trkpt lat="41.161726000" lon="19.789430000">
        <ele>633.600000</ele>
        <time>2012-03-17T16:17:17Z</time>
      </trkpt>
      <trkpt lat="41.161529000" lon="19.789326000">
        <ele>628.400000</ele>
        <time>2012-03-17T16:18:00Z</time>
      </trkpt>
      <trkpt lat="41.161314000" lon="19.789064000">
        <ele>619.200000</ele>
        <time>2012-03-17T16:19:06Z</time>
      </trkpt>
      <trkpt lat="41.161274000" lon="19.789071000">
        <ele>617.300000</ele>
        <time>2012-03-17T16:19:22Z</time>
      </trkpt>
      <trkpt lat="41.161269000" lon="19.789069000">
        <ele>619.200000</ele>
        <time>2012-03-17T16:20:09Z</time>
      </trkpt>
      <trkpt lat="41.161237000" lon="19.788913000">
        <ele>616.800000</ele>
        <time>2012-03-17T16:20:38Z</time>
      </trkpt>
      <trkpt lat="41.161088000" lon="19.788993000">
        <ele>613.900000</ele>
        <time>2012-03-17T16:21:00Z</time>
      </trkpt>
      <trkpt lat="41.160993000" lon="19.788938000">
        <ele>610.600000</ele>
        <time>2012-03-17T16:21:39Z</time>
      </trkpt>
      <trkpt lat="41.160898000" lon="19.788988000">
        <ele>607.700000</ele>
        <time>2012-03-17T16:22:46Z</time>
      </trkpt>
      <trkpt lat="41.160578000" lon="19.788930000">
        <ele>597.600000</ele>
        <time>2012-03-17T16:24:26Z</time>
      </trkpt>
      <trkpt lat="41.160558000" lon="19.788964000">
        <ele>597.100000</ele>
        <time>2012-03-17T16:25:08Z</time>
      </trkpt>
      <trkpt lat="41.160433000" lon="19.788929000">
        <ele>591.800000</ele>
        <time>2012-03-17T16:25:39Z</time>
      </trkpt>
      <trkpt lat="41.160319000" lon="19.788938000">
        <ele>588.000000</ele>
        <time>2012-03-17T16:26:16Z</time>
      </trkpt>
      <trkpt lat="41.160133000" lon="19.788851000">
        <ele>576.900000</ele>
        <time>2012-03-17T16:28:10Z</time>
      </trkpt>
      <trkpt lat="41.159885000" lon="19.788853000">
        <ele>571.200000</ele>
        <time>2012-03-17T16:29:05Z</time>
      </trkpt>
      <trkpt lat="41.159801000" lon="19.788625000">
        <ele>567.300000</ele>
        <time>2012-03-17T16:30:15Z</time>
      </trkpt>
      <trkpt lat="41.159618000" lon="19.788495000">
        <ele>565.900000</ele>
        <time>2012-03-17T16:30:38Z</time>
      </trkpt>
      <trkpt lat="41.159555000" lon="19.788399000">
        <ele>563.000000</ele>
        <time>2012-03-17T16:30:56Z</time>
      </trkpt>
      <trkpt lat="41.159434000" lon="19.788385000">
        <ele>560.600000</ele>
        <time>2012-03-17T16:31:15Z</time>
      </trkpt>
      <trkpt lat="41.159318000" lon="19.788276000">
        <ele>556.700000</ele>
        <time>2012-03-17T16:31:33Z</time>
      </trkpt>
      <trkpt lat="41.159345000" lon="19.788188000">
        <ele>556.300000</ele>
        <time>2012-03-17T16:31:40Z</time>
      </trkpt>
      <trkpt lat="41.159191000" lon="19.788163000">
        <ele>554.800000</ele>
        <time>2012-03-17T16:31:57Z</time>
      </trkpt>
      <trkpt lat="41.158918000" lon="19.787928000">
        <ele>551.500000</ele>
        <time>2012-03-17T16:32:27Z</time>
      </trkpt>
      <trkpt lat="41.158812000" lon="19.787711000">
        <ele>549.500000</ele>
        <time>2012-03-17T16:32:46Z</time>
      </trkpt>
      <trkpt lat="41.158294000" lon="19.787588000">
        <ele>541.400000</ele>
        <time>2012-03-17T16:34:16Z</time>
      </trkpt>
      <trkpt lat="41.158080000" lon="19.787489000">
        <ele>541.400000</ele>
        <time>2012-03-17T16:34:48Z</time>
      </trkpt>
      <trkpt lat="41.157910000" lon="19.787475000">
        <ele>539.400000</ele>
        <time>2012-03-17T16:35:05Z</time>
      </trkpt>
      <trkpt lat="41.157902000" lon="19.787464000">
        <ele>538.500000</ele>
        <time>2012-03-17T16:35:42Z</time>
      </trkpt>
      <trkpt lat="41.157416000" lon="19.787117000">
        <ele>533.200000</ele>
        <time>2012-03-17T16:36:45Z</time>
      </trkpt>
      <trkpt lat="41.157003000" lon="19.786925000">
        <ele>529.300000</ele>
        <time>2012-03-17T16:37:25Z</time>
      </trkpt>
      <trkpt lat="41.156875000" lon="19.786806000">
        <ele>527.400000</ele>
        <time>2012-03-17T16:37:40Z</time>
      </trkpt>
      <trkpt lat="41.156750000" lon="19.786818000">
        <ele>525.500000</ele>
        <time>2012-03-17T16:37:56Z</time>
      </trkpt>
      <trkpt lat="41.156681000" lon="19.786787000">
        <ele>523.600000</ele>
        <time>2012-03-17T16:38:08Z</time>
      </trkpt>
      <trkpt lat="41.156678000" lon="19.786776000">
        <ele>523.100000</ele>
        <time>2012-03-17T16:38:09Z</time>
      </trkpt>
      <trkpt lat="41.156566000" lon="19.786479000">
        <ele>522.600000</ele>
        <time>2012-03-17T16:38:55Z</time>
      </trkpt>
      <trkpt lat="41.156440000" lon="19.786454000">
        <ele>521.200000</ele>
        <time>2012-03-17T16:39:08Z</time>
      </trkpt>
      <trkpt lat="41.156102000" lon="19.786640000">
        <ele>521.700000</ele>
        <time>2012-03-17T16:40:05Z</time>
      </trkpt>
      <trkpt lat="41.156094000" lon="19.786632000">
        <ele>520.700000</ele>
        <time>2012-03-17T16:40:06Z</time>
      </trkpt>
      <trkpt lat="41.156061000" lon="19.786445000">
        <ele>519.200000</ele>
        <time>2012-03-17T16:40:20Z</time>
      </trkpt>
      <trkpt lat="41.155912000" lon="19.786230000">
        <ele>517.300000</ele>
        <time>2012-03-17T16:40:42Z</time>
      </trkpt>
      <trkpt lat="41.155768000" lon="19.786168000">
        <ele>516.400000</ele>
        <time>2012-03-17T16:40:55Z</time>
      </trkpt>
      <trkpt lat="41.155721000" lon="19.786202000">
        <ele>516.400000</ele>
        <time>2012-03-17T16:41:14Z</time>
      </trkpt>
      <trkpt lat="41.155518000" lon="19.786164000">
        <ele>515.400000</ele>
        <time>2012-03-17T16:42:51Z</time>
      </trkpt>
      <trkpt lat="41.155366000" lon="19.785951000">
        <ele>514.000000</ele>
        <time>2012-03-17T16:43:11Z</time>
      </trkpt>
      <trkpt lat="41.155245000" lon="19.785872000">
        <ele>512.000000</ele>
        <time>2012-03-17T16:43:25Z</time>
      </trkpt>
      <trkpt lat="41.155045000" lon="19.785937000">
        <ele>512.000000</ele>
        <time>2012-03-17T16:44:20Z</time>
      </trkpt>
      <trkpt lat="41.154870000" lon="19.785884000">
        <ele>511.600000</ele>
        <time>2012-03-17T16:45:10Z</time>
      </trkpt>
      <trkpt lat="41.154703000" lon="19.785473000">
        <ele>511.100000</ele>
        <time>2012-03-17T16:45:44Z</time>
      </trkpt>
      <trkpt lat="41.154473000" lon="19.785299000">
        <ele>512.500000</ele>
        <time>2012-03-17T16:46:12Z</time>
      </trkpt>
      <trkpt lat="41.154176000" lon="19.784877000">
        <ele>515.400000</ele>
        <time>2012-03-17T16:47:19Z</time>
      </trkpt>
      <trkpt lat="41.153893000" lon="19.784688000">
        <ele>515.900000</ele>
        <time>2012-03-17T16:47:46Z</time>
      </trkpt>
      <trkpt lat="41.153811000" lon="19.784198000">
        <ele>515.900000</ele>
        <time>2012-03-17T16:48:42Z</time>
      </trkpt>
      <trkpt lat="41.153574000" lon="19.784423000">
        <ele>506.800000</ele>
        <time>2012-03-17T16:49:50Z</time>
      </trkpt>
      <trkpt lat="41.153393000" lon="19.784127000">
        <ele>500.500000</ele>
        <time>2012-03-17T16:50:32Z</time>
      </trkpt>
      <trkpt lat="41.153233000" lon="19.784167000">
        <ele>496.200000</ele>
        <time>2012-03-17T16:50:59Z</time>
      </trkpt>
      <trkpt lat="41.153134000" lon="19.784159000">
        <ele>494.700000</ele>
        <time>2012-03-17T16:51:14Z</time>
      </trkpt>
      <trkpt lat="41.152670000" lon="19.784555000">
        <ele>490.900000</ele>
        <time>2012-03-17T16:52:09Z</time>
      </trkpt>
      <trkpt lat="41.152663000" lon="19.784558000">
        <ele>490.900000</ele>
        <time>2012-03-17T16:52:10Z</time>
      </trkpt>
      <trkpt lat="41.152392000" lon="19.784548000">
        <ele>492.300000</ele>
        <time>2012-03-17T16:52:35Z</time>
      </trkpt>
      <trkpt lat="41.152288000" lon="19.784585000">
        <ele>494.300000</ele>
        <time>2012-03-17T16:52:51Z</time>
      </trkpt>
      <trkpt lat="41.152125000" lon="19.784529000">
        <ele>494.700000</ele>
        <time>2012-03-17T16:53:09Z</time>
      </trkpt>
      <trkpt lat="41.152004000" lon="19.784493000">
        <ele>494.300000</ele>
        <time>2012-03-17T16:53:26Z</time>
      </trkpt>
      <trkpt lat="41.151754000" lon="19.784313000">
        <ele>494.300000</ele>
        <time>2012-03-17T16:53:55Z</time>
      </trkpt>
      <trkpt lat="41.151492000" lon="19.784668000">
        <ele>494.700000</ele>
        <time>2012-03-17T16:54:36Z</time>
      </trkpt>
      <trkpt lat="41.151356000" lon="19.785038000">
        <ele>494.300000</ele>
        <time>2012-03-17T16:55:13Z</time>
      </trkpt>
      <trkpt lat="41.151200000" lon="19.785146000">
        <ele>495.200000</ele>
        <time>2012-03-17T16:55:33Z</time>
      </trkpt>
      <trkpt lat="41.151115000" lon="19.785110000">
        <ele>495.200000</ele>
        <time>2012-03-17T16:55:42Z</time>
      </trkpt>
      <trkpt lat="41.151097000" lon="19.785003000">
        <ele>494.700000</ele>
        <time>2012-03-17T16:55:58Z</time>
      </trkpt>
      <trkpt lat="41.151128000" lon="19.784691000">
        <ele>494.700000</ele>
        <time>2012-03-17T16:56:26Z</time>
      </trkpt>
      <trkpt lat="41.150923000" lon="19.784493000">
        <ele>494.300000</ele>
        <time>2012-03-17T16:56:52Z</time>
      </trkpt>
      <trkpt lat="41.150817000" lon="19.784428000">
        <ele>494.700000</ele>
        <time>2012-03-17T16:57:24Z</time>
      </trkpt>
      <trkpt lat="41.150750000" lon="19.784345000">
        <ele>494.300000</ele>
        <time>2012-03-17T16:57:35Z</time>
      </trkpt>
      <trkpt lat="41.150639000" lon="19.784353000">
        <ele>494.300000</ele>
        <time>2012-03-17T16:57:47Z</time>
      </trkpt>
      <trkpt lat="41.150538000" lon="19.784468000">
        <ele>495.200000</ele>
        <time>2012-03-17T16:57:59Z</time>
      </trkpt>
      <trkpt lat="41.150534000" lon="19.784466000">
        <ele>495.200000</ele>
        <time>2012-03-17T16:58:00Z</time>
      </trkpt>
      <trkpt lat="41.150055000" lon="19.784589000">
        <ele>497.100000</ele>
        <time>2012-03-17T16:59:03Z</time>
      </trkpt>
      <trkpt lat="41.149927000" lon="19.784878000">
        <ele>494.700000</ele>
        <time>2012-03-17T16:59:31Z</time>
      </trkpt>
      <trkpt lat="41.149595000" lon="19.784575000">
        <ele>499.100000</ele>
        <time>2012-03-17T17:01:15Z</time>
      </trkpt>
      <trkpt lat="41.149515000" lon="19.784614000">
        <ele>499.100000</ele>
        <time>2012-03-17T17:01:22Z</time>
      </trkpt>
      <trkpt lat="41.149234000" lon="19.784884000">
        <ele>499.100000</ele>
        <time>2012-03-17T17:01:53Z</time>
      </trkpt>
      <trkpt lat="41.149164000" lon="19.784838000">
        <ele>502.400000</ele>
        <time>2012-03-17T17:02:22Z</time>
      </trkpt>
      <trkpt lat="41.149074000" lon="19.784601000">
        <ele>503.400000</ele>
        <time>2012-03-17T17:02:59Z</time>
      </trkpt>
      <trkpt lat="41.148932000" lon="19.784475000">
        <ele>503.900000</ele>
        <time>2012-03-17T17:03:13Z</time>
      </trkpt>
      <trkpt lat="41.148483000" lon="19.784714000">
        <ele>503.900000</ele>
        <time>2012-03-17T17:03:57Z</time>
      </trkpt>
      <trkpt lat="41.148244000" lon="19.784792000">
        <ele>503.900000</ele>
        <time>2012-03-17T17:04:29Z</time>
      </trkpt>
      <trkpt lat="41.148140000" lon="19.784713000">
        <ele>501.500000</ele>
        <time>2012-03-17T17:05:05Z</time>
      </trkpt>
      <trkpt lat="41.148215000" lon="19.785051000">
        <ele>499.500000</ele>
        <time>2012-03-17T17:05:30Z</time>
      </trkpt>
      <trkpt lat="41.148269000" lon="19.785220000">
        <ele>498.600000</ele>
        <time>2012-03-17T17:05:43Z</time>
      </trkpt>
      <trkpt lat="41.148233000" lon="19.785673000">
        <ele>497.600000</ele>
        <time>2012-03-17T17:06:13Z</time>
      </trkpt>
      <trkpt lat="41.148107000" lon="19.785842000">
        <ele>496.700000</ele>
        <time>2012-03-17T17:06:29Z</time>
      </trkpt>
      <trkpt lat="41.147842000" lon="19.785958000">
        <ele>495.200000</ele>
        <time>2012-03-17T17:06:58Z</time>
      </trkpt>
      <trkpt lat="41.147797000" lon="19.786016000">
        <ele>494.700000</ele>
        <time>2012-03-17T17:07:05Z</time>
      </trkpt>
      <trkpt lat="41.147639000" lon="19.786496000">
        <ele>489.900000</ele>
        <time>2012-03-17T17:07:47Z</time>
      </trkpt>
      <trkpt lat="41.147497000" lon="19.786503000">
        <ele>489.000000</ele>
        <time>2012-03-17T17:08:05Z</time>
      </trkpt>
      <trkpt lat="41.147152000" lon="19.786374000">
        <ele>487.500000</ele>
        <time>2012-03-17T17:08:35Z</time>
      </trkpt>
      <trkpt lat="41.147015000" lon="19.786371000">
        <ele>487.500000</ele>
        <time>2012-03-17T17:08:51Z</time>
      </trkpt>
      <trkpt lat="41.146726000" lon="19.786193000">
        <ele>491.900000</ele>
        <time>2012-03-17T17:10:01Z</time>
      </trkpt>
      <trkpt lat="41.146665000" lon="19.786189000">
        <ele>493.300000</ele>
        <time>2012-03-17T17:10:20Z</time>
      </trkpt>
      <trkpt lat="41.146612000" lon="19.786145000">
        <ele>495.700000</ele>
        <time>2012-03-17T17:10:38Z</time>
      </trkpt>
      <trkpt lat="41.146552000" lon="19.786193000">
        <ele>496.200000</ele>
        <time>2012-03-17T17:10:48Z</time>
      </trkpt>
      <trkpt lat="41.146457000" lon="19.786438000">
        <ele>492.800000</ele>
        <time>2012-03-17T17:11:10Z</time>
      </trkpt>
      <trkpt lat="41.146172000" lon="19.786642000">
        <ele>490.900000</ele>
        <time>2012-03-17T17:11:37Z</time>
      </trkpt>
      <trkpt lat="41.145983000" lon="19.786599000">
        <ele>490.900000</ele>
        <time>2012-03-17T17:11:57Z</time>
      </trkpt>
      <trkpt lat="41.145772000" lon="19.786707000">
        <ele>485.600000</ele>
        <time>2012-03-17T17:12:25Z</time>
      </trkpt>
      <trkpt lat="41.145453000" lon="19.786614000">
        <ele>481.800000</ele>
        <time>2012-03-17T17:12:56Z</time>
      </trkpt>
      <trkpt lat="41.145060000" lon="19.786726000">
        <ele>479.400000</ele>
        <time>2012-03-17T17:13:27Z</time>
      </trkpt>
      <trkpt lat="41.144782000" lon="19.786988000">
        <ele>477.000000</ele>
        <time>2012-03-17T17:13:55Z</time>
      </trkpt>
      <trkpt lat="41.144698000" lon="19.787168000">
        <ele>475.000000</ele>
        <time>2012-03-17T17:14:12Z</time>
      </trkpt>
      <trkpt lat="41.144707000" lon="19.787193000">
        <ele>475.500000</ele>
        <time>2012-03-17T17:14:58Z</time>
      </trkpt>
    </trkseg>
  </trk>
</gpx>
